Time;durP1;ratioP1;P1;durP2;ratioP2;P2;SDS_P1;SDS_P2;PMS_P1;PMS_P2;Temp;Humidity;BMP_temperature;BMP_pressure;BME280_temperature;BME280_humidity;BME280_pressure;Samples;Min_cycle;Max_cycle;Signal;HPM_P1;HPM_P2
2021/12/21 00:02:28;;;;;;;39.78;18.60;;;-3.80;99.90;;;;;;6184044;23;20051;-86
2021/12/21 00:05:20;;;;;;;47.88;19.15;;;-3.90;99.90;;;;;;6213983;23;20028;-85
2021/12/21 00:08:12;;;;;;;38.97;14.93;;;-4.00;99.90;;;;;;6216556;23;20025;-83
2021/12/21 00:11:03;;;;;;;54.67;19.77;;;-4.00;99.90;;;;;;6215661;23;20039;-83
2021/12/21 00:16:44;;;;;;;49.90;20.30;;;-4.00;99.90;;;;;;6218434;23;20028;-84
2021/12/21 00:19:50;;;;;;;47.58;20.27;;;-4.10;99.90;;;;;;6198155;23;20036;-84
2021/12/21 00:25:34;;;;;;;49.22;20.45;;;-4.20;99.90;;;;;;6214573;23;20498;-84
2021/12/21 00:28:24;;;;;;;42.60;19.15;;;-4.10;99.90;;;;;;6217404;23;20378;-85
2021/12/21 00:31:11;;;;;;;47.47;19.20;;;-4.00;99.90;;;;;;6215920;23;20025;-86
2021/12/21 00:33:59;;;;;;;50.15;19.23;;;-4.00;99.90;;;;;;6198189;23;20104;-85
2021/12/21 00:36:48;;;;;;;55.25;20.00;;;-4.10;99.90;;;;;;6218254;23;20048;-85
2021/12/21 00:39:35;;;;;;;44.33;19.90;;;-4.10;99.90;;;;;;6175501;23;20028;-85
2021/12/21 00:42:25;;;;;;;43.22;17.55;;;-4.10;99.90;;;;;;6219571;23;20116;-84
2021/12/21 00:45:12;;;;;;;45.92;19.52;;;-4.10;99.90;;;;;;6223665;23;20064;-85
2021/12/21 00:48:03;;;;;;;41.17;17.85;;;-4.20;99.90;;;;;;6237140;23;20024;-83
2021/12/21 00:50:53;;;;;;;48.20;17.92;;;-4.20;99.90;;;;;;6237098;23;20032;-84
2021/12/21 00:53:44;;;;;;;38.03;17.85;;;-4.30;99.90;;;;;;6240251;23;20091;-84
2021/12/21 00:56:35;;;;;;;48.47;18.33;;;-4.30;99.90;;;;;;6239772;23;20028;-83
2021/12/21 00:59:28;;;;;;;43.78;17.73;;;-4.40;99.90;;;;;;6238966;23;20020;-85
2021/12/21 01:02:16;;;;;;;47.17;16.95;;;-4.50;99.90;;;;;;6206004;22;20058;-84
2021/12/21 01:05:35;;;;;;;43.00;17.85;;;-4.50;99.90;;;;;;6244886;22;20028;-84
2021/12/21 01:08:27;;;;;;;43.90;18.65;;;-4.60;99.90;;;;;;6269365;22;20012;-85
2021/12/21 01:11:23;;;;;;;43.03;16.65;;;-4.40;99.90;;;;;;6208579;23;20055;-84
2021/12/21 01:17:25;;;;;;;35.58;15.18;;;-3.80;99.90;;;;;;6266990;22;20024;-85
2021/12/21 01:23:57;;;;;;;37.47;16.35;;;-3.50;99.90;;;;;;6248973;22;20077;-85
2021/12/21 01:32:55;;;;;;;42.28;16.30;;;-3.60;99.90;;;;;;6247971;23;20012;-86
2021/12/21 01:35:43;;;;;;;34.58;16.50;;;-3.60;99.90;;;;;;6242980;23;20059;-83
2021/12/21 01:38:39;;;;;;;37.40;16.48;;;-3.60;99.90;;;;;;6260010;23;20338;-86
2021/12/21 01:42:01;;;;;;;46.47;16.17;;;-3.60;99.90;;;;;;6217841;23;20024;-86
2021/12/21 01:51:05;;;;;;;44.78;15.75;;;-4.00;99.90;;;;;;6230076;23;20024;-84
2021/12/21 01:53:57;;;;;;;26.88;13.70;;;-4.10;99.90;;;;;;6248907;22;20080;-85
2021/12/21 01:56:45;;;;;;;36.17;15.10;;;-4.20;99.90;;;;;;6225178;23;20047;-85
2021/12/21 01:59:36;;;;;;;32.03;14.60;;;-4.30;99.90;;;;;;6225558;23;20096;-85
2021/12/21 02:02:24;;;;;;;35.80;13.10;;;-4.40;99.90;;;;;;6227403;23;20128;-85
2021/12/21 02:05:15;;;;;;;39.10;15.05;;;-4.50;99.90;;;;;;6228204;23;20303;-84
2021/12/21 02:08:02;;;;;;;44.33;13.82;;;-4.60;99.90;;;;;;6209189;23;20098;-84
2021/12/21 02:10:50;;;;;;;27.15;13.65;;;-4.60;99.90;;;;;;6231233;23;20082;-82
2021/12/21 02:13:44;;;;;;;44.30;14.07;;;-4.60;99.90;;;;;;6212830;23;20099;-82
2021/12/21 02:16:42;;;;;;;35.67;14.25;;;-4.70;99.90;;;;;;6228929;23;20093;-83
2021/12/21 02:19:39;;;;;;;30.25;14.15;;;-4.70;99.90;;;;;;6209898;23;20070;-83
2021/12/21 02:22:44;;;;;;;35.72;13.73;;;-4.70;99.90;;;;;;6216055;23;20374;-84
2021/12/21 02:25:50;;;;;;;31.20;14.07;;;-4.80;99.90;;;;;;6207613;23;20078;-85
2021/12/21 02:31:31;;;;;;;28.25;13.40;;;-4.80;99.90;;;;;;6231805;23;20074;-85
2021/12/21 02:34:26;;;;;;;41.35;15.20;;;-4.80;99.90;;;;;;6228640;23;20150;-84
2021/12/21 02:37:18;;;;;;;29.27;13.40;;;-4.70;99.90;;;;;;6247991;23;20105;-85
2021/12/21 02:40:06;;;;;;;37.05;15.02;;;-4.80;99.90;;;;;;6206416;23;20028;-84
2021/12/21 02:42:55;;;;;;;33.72;13.63;;;-4.90;99.90;;;;;;6224444;22;20082;-85
2021/12/21 02:45:43;;;;;;;30.85;13.55;;;-4.80;99.90;;;;;;6225579;23;20419;-85
2021/12/21 02:48:35;;;;;;;25.63;14.18;;;-4.90;99.90;;;;;;6246217;23;20028;-87
2021/12/21 02:51:24;;;;;;;39.60;14.05;;;-4.90;99.90;;;;;;6222753;23;20388;-86
2021/12/21 02:54:13;;;;;;;25.27;12.77;;;-5.00;99.90;;;;;;6247187;23;20090;-85
2021/12/21 02:57:01;;;;;;;30.02;12.43;;;-5.00;99.90;;;;;;6222676;23;20090;-84
2021/12/21 02:59:49;;;;;;;30.23;13.95;;;-5.00;99.90;;;;;;6223297;23;20475;-86
2021/12/21 03:02:38;;;;;;;30.92;12.40;;;-5.00;99.90;;;;;;6245730;23;20099;-86
2021/12/21 03:05:28;;;;;;;37.33;14.52;;;-5.00;99.90;;;;;;6247132;22;20055;-86
2021/12/21 03:08:35;;;;;;;29.15;12.25;;;-5.00;99.90;;;;;;6225361;23;20095;-85
2021/12/21 03:11:47;;;;;;;31.45;13.10;;;-5.10;99.90;;;;;;6245123;23;20024;-86
2021/12/21 03:14:33;;;;;;;33.90;12.45;;;-5.10;99.90;;;;;;6245981;23;20051;-85
2021/12/21 03:17:25;;;;;;;28.70;12.23;;;-5.20;99.90;;;;;;6224554;23;20712;-85
2021/12/21 03:20:13;;;;;;;27.25;12.20;;;-5.20;99.90;;;;;;6244848;23;20040;-85
2021/12/21 03:23:01;;;;;;;35.92;13.10;;;-5.20;99.90;;;;;;6222641;23;20035;-83
2021/12/21 03:25:48;;;;;;;33.13;13.02;;;-5.10;99.90;;;;;;6182843;23;20020;-84
2021/12/21 03:28:39;;;;;;;29.70;12.57;;;-5.10;99.90;;;;;;6222408;23;20028;-85
2021/12/21 03:31:27;;;;;;;31.73;11.77;;;-5.10;99.90;;;;;;6247586;22;20050;-85
2021/12/21 03:34:18;;;;;;;29.17;12.45;;;-5.20;99.90;;;;;;6245961;23;20024;-86
2021/12/21 03:37:16;;;;;;;26.15;12.02;;;-5.20;99.90;;;;;;6225683;23;20422;-85
2021/12/21 03:40:05;;;;;;;28.95;12.25;;;-5.30;99.90;;;;;;6224756;23;20032;-85
2021/12/21 03:42:52;;;;;;;37.17;12.38;;;-5.30;99.90;;;;;;6203974;23;20269;-85
2021/12/21 03:45:46;;;;;;;32.20;13.05;;;-5.30;99.90;;;;;;6222187;23;20028;-86
2021/12/21 03:48:45;;;;;;;24.98;11.77;;;-5.30;99.90;;;;;;6205998;23;20032;-85
2021/12/21 03:51:35;;;;;;;25.38;11.18;;;-5.30;99.90;;;;;;6224695;23;20035;-86
2021/12/21 03:54:25;;;;;;;22.83;11.48;;;-5.40;99.90;;;;;;6202072;23;20566;-86
2021/12/21 03:57:14;;;;;;;35.45;12.95;;;-5.40;99.90;;;;;;6224385;23;20032;-84
2021/12/21 04:00:01;;;;;;;29.25;12.23;;;-5.40;99.90;;;;;;6247342;22;20028;-86
2021/12/21 04:02:51;;;;;;;26.88;12.10;;;-5.40;99.90;;;;;;6224577;23;20322;-84
2021/12/21 04:05:39;;;;;;;29.38;11.63;;;-5.40;99.90;;;;;;6226560;23;20082;-86
2021/12/21 04:08:28;;;;;;;23.50;10.82;;;-5.40;99.90;;;;;;6226435;23;20163;-86
2021/12/21 04:11:15;;;;;;;29.75;12.18;;;-5.40;99.90;;;;;;6183307;23;20047;-82
2021/12/21 04:14:02;;;;;;;27.88;12.52;;;-5.40;99.90;;;;;;6221333;23;20419;-83
2021/12/21 04:16:51;;;;;;;29.65;12.68;;;-5.40;99.90;;;;;;6200562;23;20125;-84
2021/12/21 04:19:40;;;;;;;31.90;12.63;;;-5.40;99.90;;;;;;6244031;23;20142;-86
2021/12/21 04:22:31;;;;;;;27.55;13.73;;;-5.40;99.90;;;;;;6221903;23;20032;-86
2021/12/21 04:25:20;;;;;;;26.88;12.50;;;-5.50;99.90;;;;;;6223725;23;20035;-84
2021/12/21 04:28:10;;;;;;;43.58;12.77;;;-5.40;99.90;;;;;;6201323;23;20028;-84
2021/12/21 04:30:58;;;;;;;31.75;12.48;;;-5.50;99.90;;;;;;6244890;23;20024;-86
2021/12/21 04:33:46;;;;;;;30.85;12.27;;;-5.50;99.90;;;;;;6224088;23;20024;-86
2021/12/21 04:36:34;;;;;;;27.80;12.35;;;-5.40;99.90;;;;;;6224344;23;20047;-86
2021/12/21 04:39:40;;;;;;;29.98;12.88;;;-5.50;99.90;;;;;;6225324;23;20050;-85
2021/12/21 04:42:28;;;;;;;25.58;12.18;;;-5.50;99.90;;;;;;6206253;23;20036;-85
2021/12/21 04:45:16;;;;;;;26.63;12.80;;;-5.50;99.90;;;;;;6245835;23;20031;-84
2021/12/21 04:48:05;;;;;;;30.73;12.32;;;-5.60;99.90;;;;;;6224808;23;20028;-85
2021/12/21 04:50:54;;;;;;;40.90;13.05;;;-5.60;99.90;;;;;;6222745;23;20020;-86
2021/12/21 04:53:44;;;;;;;35.65;13.05;;;-5.60;99.90;;;;;;6224936;23;20043;-86
2021/12/21 04:56:32;;;;;;;29.30;12.80;;;-5.60;99.90;;;;;;6248146;23;20031;-85
2021/12/21 04:59:20;;;;;;;28.55;12.35;;;-5.60;99.90;;;;;;6225471;23;20031;-84
2021/12/21 05:02:33;;;;;;;35.13;12.65;;;-5.60;99.90;;;;;;6237231;23;20028;-83
2021/12/21 05:05:21;;;;;;;33.33;12.93;;;-5.60;99.90;;;;;;6260657;23;20024;-84
2021/12/21 05:08:19;;;;;;;37.10;12.77;;;-5.60;99.90;;;;;;6215327;23;20028;-85
2021/12/21 05:11:10;;;;;;;26.95;12.77;;;-5.60;99.90;;;;;;6216495;23;20101;-84
2021/12/21 05:14:07;;;;;;;29.95;13.27;;;-5.60;99.90;;;;;;6248488;22;20020;-86
2021/12/21 05:36:05;;;;;;;29.02;12.75;;;-5.60;99.90;;;;;;6213119;23;20052;-86
2021/12/21 05:38:59;;;;;;;41.03;13.23;;;-5.60;99.90;;;;;;6192400;23;20056;-87
2021/12/21 05:41:51;;;;;;;39.60;15.52;;;-5.60;99.90;;;;;;6192684;23;20032;-87
2021/12/21 05:44:41;;;;;;;35.40;14.07;;;-5.70;99.90;;;;;;6173744;23;20021;-87
2021/12/21 05:47:28;;;;;;;22.13;11.32;;;-5.70;99.90;;;;;;6152492;23;20025;-86
2021/12/21 05:50:21;;;;;;;36.72;14.13;;;-5.60;99.90;;;;;;6173953;23;20025;-84
2021/12/21 05:53:09;;;;;;;33.78;13.05;;;-5.70;99.90;;;;;;6211678;23;20082;-85
2021/12/21 05:55:59;;;;;;;24.40;13.95;;;-5.70;99.90;;;;;;6190878;23;20131;-87
2021/12/21 05:58:47;;;;;;;28.80;12.57;;;-5.70;99.90;;;;;;6212771;23;20039;-87
2021/12/21 06:01:37;;;;;;;26.45;13.35;;;-5.70;99.90;;;;;;6172231;23;20029;-86
2021/12/21 06:04:25;;;;;;;22.88;12.75;;;-5.70;99.90;;;;;;6172480;23;20028;-88
2021/12/21 06:07:12;;;;;;;32.17;13.18;;;-5.70;99.90;;;;;;6194970;23;20038;-86
2021/12/21 06:10:10;;;;;;;31.20;13.98;;;-5.80;99.90;;;;;;6174288;23;20025;-85
2021/12/21 07:02:14;;;;;;;29.77;15.32;;;-5.80;99.90;;;;;;6124611;23;20029;-84
2021/12/21 07:05:09;;;;;;;29.75;12.88;;;-5.80;99.90;;;;;;6225876;23;20024;-82
2021/12/21 07:08:02;;;;;;;35.28;14.48;;;-5.80;99.90;;;;;;6224736;23;20380;-81
2021/12/21 07:18:29;;;;;;;25.80;13.38;;;-5.80;99.90;;;;;;6137440;23;20027;-83
2021/12/21 07:21:17;;;;;;;27.60;13.43;;;-5.80;99.90;;;;;;6225518;23;20685;-82
2021/12/21 07:24:09;;;;;;;44.90;19.58;;;-5.70;99.90;;;;;;6246669;22;20103;-83
2021/12/21 07:26:59;;;;;;;30.85;14.90;;;-5.70;99.90;;;;;;6220412;23;20034;-82
2021/12/21 07:29:52;;;;;;;36.92;16.35;;;-5.70;99.90;;;;;;6202682;23;20031;-86
2021/12/21 07:34:06;;;;;;;31.20;15.63;;;-5.60;99.90;;;;;;6225020;23;20016;-82
2021/12/21 07:36:58;;;;;;;38.53;16.83;;;-5.60;99.90;;;;;;6212713;23;20126;-81
2021/12/21 07:39:46;;;;;;;36.97;15.45;;;-5.60;99.90;;;;;;6223732;23;20016;-82
2021/12/21 07:42:40;;;;;;;32.55;16.42;;;-5.60;99.90;;;;;;6245223;23;20040;-82
2021/12/21 07:45:27;;;;;;;33.08;17.65;;;-5.50;99.90;;;;;;6220525;23;20408;-82
2021/12/21 07:48:20;;;;;;;35.88;17.23;;;-5.50;99.90;;;;;;6203599;23;20020;-82
2021/12/21 07:52:01;;;;;;;49.45;20.30;;;-5.50;99.90;;;;;;6245592;22;20035;-83
2021/12/21 07:56:04;;;;;;;31.55;15.90;;;-5.50;99.90;;;;;;6091727;23;20022;-84
2021/12/21 08:15:31;;;;;;;27.52;15.07;;;-4.60;99.90;;;;;;6172157;23;20033;-82
2021/12/21 08:19:22;;;;;;;58.72;26.35;;;-4.30;99.90;;;;;;6164941;23;20029;-84
2021/12/21 08:23:12;;;;;;;60.08;27.70;;;-4.00;99.90;;;;;;6149007;23;20168;-82
2021/12/21 08:26:48;;;;;;;65.75;31.15;;;-3.90;99.90;;;;;;6224032;23;20320;-83
2021/12/21 08:42:51;;;;;;;50.83;25.48;;;-3.00;99.90;;;;;;6015152;23;20015;-82
2021/12/21 08:51:10;;;;;;;;;;;;;;;;;;;;;
2021/12/21 08:55:22;;;;;;;;;;;;;;;;;;;;;
2021/12/21 09:07:44;;;;;;;35.00;16.65;;;-1.80;99.90;;;;;;6065097;23;20027;-86
2021/12/21 09:10:53;;;;;;;31.85;16.50;;;-1.50;99.90;;;;;;6065121;23;20026;-82
2021/12/21 09:13:41;;;;;;;33.00;16.42;;;-1.20;99.90;;;;;;6149571;23;20016;-83
2021/12/21 09:16:29;;;;;;;32.63;16.10;;;-1.00;99.90;;;;;;6202053;23;20411;-80
2021/12/21 09:19:19;;;;;;;37.53;19.33;;;-0.90;99.90;;;;;;6218397;23;20210;-81
2021/12/21 09:22:38;;;;;;;44.08;18.38;;;-0.90;99.90;;;;;;6203607;23;20025;-82
2021/12/21 09:25:59;;;;;;;37.55;17.90;;;-0.60;99.90;;;;;;6103701;23;20069;-81
2021/12/21 09:28:57;;;;;;;41.80;18.83;;;-0.20;99.90;;;;;;6225318;23;20048;-81
2021/12/21 09:31:56;;;;;;;31.77;12.90;;;0.10;99.90;;;;;;6207149;23;20570;-81
2021/12/21 09:35:00;;;;;;;33.55;16.08;;;0.70;99.90;;;;;;6115967;23;20165;-83
2021/12/21 09:37:51;;;;;;;23.33;13.85;;;1.30;99.90;;;;;;6135815;23;20053;-82
2021/12/21 09:40:48;;;;;;;22.85;11.57;;;2.10;99.90;;;;;;6123492;23;20492;-84
2021/12/21 09:43:54;;;;;;;14.38;7.95;;;3.00;99.90;;;;;;6138542;23;20106;-84
2021/12/21 09:46:45;;;;;;;12.80;6.43;;;3.70;99.90;;;;;;6102745;23;20058;-80
2021/12/21 09:49:41;;;;;;;13.98;6.75;;;4.30;99.90;;;;;;6127070;23;20084;-82
2021/12/21 09:52:54;;;;;;;14.15;7.70;;;4.30;99.90;;;;;;6145013;23;20065;-82
2021/12/21 09:55:47;;;;;;;11.82;6.35;;;4.80;99.90;;;;;;6122542;23;20081;-83
2021/12/21 09:58:35;;;;;;;10.73;6.93;;;5.60;99.90;;;;;;6169319;23;20029;-84
2021/12/21 10:01:30;;;;;;;10.45;6.60;;;5.90;99.90;;;;;;6151049;23;20036;-84
2021/12/21 10:04:21;;;;;;;12.85;6.18;;;6.00;99.90;;;;;;6142827;23;20033;-84
2021/12/21 10:07:26;;;;;;;10.32;5.60;;;6.80;97.20;;;;;;6143619;23;20021;-83
2021/12/21 10:11:07;;;;;;;8.00;5.57;;;7.40;95.50;;;;;;6159030;23;20056;-85
2021/12/21 10:14:08;;;;;;;9.45;5.70;;;8.00;90.70;;;;;;6228491;23;20023;-83
2021/12/21 10:17:15;;;;;;;9.85;4.68;;;7.90;87.10;;;;;;6182670;23;20036;-83
2021/12/21 10:20:09;;;;;;;12.40;5.68;;;7.90;87.80;;;;;;6240595;23;20028;-80
2021/12/21 10:23:06;;;;;;;12.63;6.32;;;8.60;85.60;;;;;;6223515;23;20028;-82
2021/12/21 10:25:59;;;;;;;11.75;5.60;;;8.40;80.10;;;;;;6221714;23;20020;-86
2021/12/21 10:29:15;;;;;;;8.82;5.07;;;8.00;81.60;;;;;;6219743;23;20039;-85
2021/12/21 10:32:05;;;;;;;12.30;5.20;;;8.30;83.00;;;;;;6224168;23;20031;-85
2021/12/21 10:35:05;;;;;;;9.38;4.80;;;8.90;76.50;;;;;;6197684;23;20032;-85
2021/12/21 10:37:55;;;;;;;8.82;4.57;;;8.50;78.00;;;;;;6244222;23;20028;-85
2021/12/21 10:40:50;;;;;;;9.45;4.85;;;8.30;77.30;;;;;;6221870;23;20036;-87
2021/12/21 10:43:38;;;;;;;8.13;4.28;;;8.50;78.20;;;;;;6222582;23;20032;-86
2021/12/21 10:46:32;;;;;;;11.98;5.43;;;9.20;73.50;;;;;;6221695;23;20154;-86
2021/12/21 10:49:25;;;;;;;8.13;5.03;;;9.70;70.50;;;;;;6220729;23;20431;-86
2021/12/21 10:52:14;;;;;;;7.97;4.45;;;10.20;68.40;;;;;;6223761;23;20032;-87
2021/12/21 10:55:04;;;;;;;8.88;4.57;;;11.10;65.40;;;;;;6223215;23;20043;-86
2021/12/21 10:58:01;;;;;;;10.30;5.47;;;10.70;64.40;;;;;;6246399;23;20298;-86
2021/12/21 11:01:03;;;;;;;8.55;4.57;;;10.90;62.30;;;;;;6226503;23;20103;-87
2021/12/21 11:03:53;;;;;;;7.53;3.87;;;12.00;60.30;;;;;;6228325;23;20028;-86
2021/12/21 11:06:47;;;;;;;10.13;4.90;;;12.30;58.70;;;;;;6226741;23;20039;-86
2021/12/21 11:09:36;;;;;;;8.35;4.15;;;11.90;59.80;;;;;;6224833;23;20024;-87
2021/12/21 11:12:27;;;;;;;7.10;4.03;;;11.10;61.20;;;;;;6202819;23;20035;-84
2021/12/21 11:15:19;;;;;;;10.05;4.65;;;12.10;59.70;;;;;;6231953;23;20032;-86
2021/12/21 11:18:13;;;;;;;7.97;4.18;;;12.30;58.00;;;;;;6227546;23;20024;-85
2021/12/21 11:21:06;;;;;;;9.80;4.53;;;12.70;58.20;;;;;;6226410;23;20031;-84
2021/12/21 11:23:55;;;;;;;6.57;3.67;;;12.60;56.40;;;;;;6222681;23;20099;-84
2021/12/21 11:26:44;;;;;;;9.95;4.40;;;12.80;56.20;;;;;;6222783;23;20040;-82
2021/12/21 11:33:56;;;;;;;9.88;4.20;;;13.00;54.10;;;;;;6067377;23;20027;-87
2021/12/21 11:37:25;;;;;;;9.63;3.53;;;13.10;54.70;;;;;;6070724;23;20033;-87
2021/12/21 11:40:39;;;;;;;5.72;3.47;;;13.30;53.00;;;;;;6098534;23;20033;-87
2021/12/21 11:47:27;;;;;;;;;;;;;;;;;;;;;
2021/12/21 11:50:27;;;;;;;8.95;4.00;;;10.70;59.30;;;;;;5954998;24;20516;-88
2021/12/21 12:12:16;;;;;;;9.32;3.70;;;11.80;55.30;;;;;;6196267;22;1509798;-85
2021/12/21 12:15:06;;;;;;;7.13;3.35;;;10.40;59.00;;;;;;6228940;23;20028;-84
2021/12/21 12:17:57;;;;;;;6.03;3.13;;;10.60;58.00;;;;;;6186376;23;20033;-86
2021/12/21 12:20:48;;;;;;;9.20;3.58;;;10.40;58.00;;;;;;6203293;23;20311;-85
2021/12/21 12:23:47;;;;;;;6.90;3.28;;;10.50;58.10;;;;;;6203935;23;20035;-85
2021/12/21 12:26:57;;;;;;;8.82;3.70;;;10.90;57.10;;;;;;6223276;23;20411;-86
2021/12/21 12:34:24;;;;;;;9.10;4.10;;;10.90;55.90;;;;;;6189191;23;20039;-85
2021/12/21 12:37:21;;;;;;;8.43;3.28;;;10.10;57.80;;;;;;6209168;23;20028;-80
2021/12/21 12:40:10;;;;;;;8.43;3.95;;;10.30;57.00;;;;;;6213269;23;20078;-83
2021/12/21 12:43:16;;;;;;;8.38;3.78;;;9.70;58.50;;;;;;6245329;23;20032;-83
2021/12/21 12:46:08;;;;;;;7.80;4.28;;;9.50;58.60;;;;;;6195473;23;20032;-85
2021/12/21 12:48:58;;;;;;;8.18;3.80;;;10.50;57.50;;;;;;6209328;23;20028;-85
2021/12/21 12:51:45;;;;;;;7.88;3.72;;;11.00;56.50;;;;;;6211513;23;20116;-84
2021/12/21 12:54:52;;;;;;;8.05;4.25;;;10.80;56.30;;;;;;6192621;23;20032;-83
2021/12/21 12:57:49;;;;;;;7.75;4.05;;;10.70;56.90;;;;;;6187701;23;20079;-84
2021/12/21 13:00:37;;;;;;;7.70;3.90;;;11.10;55.70;;;;;;6221981;23;20035;-84
2021/12/21 13:03:40;;;;;;;7.00;3.72;;;11.00;56.10;;;;;;6202396;23;20166;-83
2021/12/21 13:06:34;;;;;;;11.23;4.50;;;10.70;55.80;;;;;;6201169;23;20020;-83
2021/12/21 13:09:22;;;;;;;7.47;3.65;;;10.60;56.20;;;;;;6220985;23;20024;-82
2021/12/21 13:12:12;;;;;;;7.82;3.95;;;10.50;56.20;;;;;;6194682;23;20028;-84
2021/12/21 13:15:00;;;;;;;8.93;3.67;;;10.50;56.60;;;;;;6192824;23;20032;-83
2021/12/21 13:17:58;;;;;;;6.00;3.75;;;10.70;56.60;;;;;;6172082;23;20028;-84
2021/12/21 13:20:49;;;;;;;16.35;5.07;;;10.90;55.90;;;;;;6175214;23;20020;-83
2021/12/21 13:23:37;;;;;;;8.55;3.78;;;10.70;55.50;;;;;;6173413;23;20087;-84
2021/12/21 13:26:33;;;;;;;8.20;4.50;;;10.40;56.10;;;;;;6212954;23;20043;-85
2021/12/21 13:29:49;;;;;;;7.95;4.43;;;10.30;56.30;;;;;;6193349;23;20028;-82
2021/12/21 13:32:43;;;;;;;12.15;5.03;;;10.10;57.80;;;;;;6194137;23;20111;-83
2021/12/21 13:35:32;;;;;;;7.72;3.95;;;9.80;57.80;;;;;;6191884;23;20074;-81
2021/12/21 13:38:21;;;;;;;5.50;3.95;;;9.80;58.20;;;;;;6172464;23;20036;-83
2021/12/21 13:41:15;;;;;;;9.93;4.45;;;9.80;58.60;;;;;;6214954;23;20095;-84
2021/12/21 13:44:03;;;;;;;7.20;3.97;;;10.10;57.80;;;;;;6191353;23;20016;-85
2021/12/21 13:46:55;;;;;;;5.63;3.58;;;9.70;57.80;;;;;;6173210;23;20024;-82
2021/12/21 13:50:19;;;;;;;6.85;4.05;;;9.30;58.50;;;;;;6213784;23;20033;-84
2021/12/21 13:53:10;;;;;;;12.15;5.85;;;8.70;60.60;;;;;;6170331;23;20056;-83
2021/12/21 13:56:10;;;;;;;9.25;4.63;;;9.10;61.50;;;;;;6173208;23;20056;-83
2021/12/21 13:59:00;;;;;;;10.52;4.30;;;9.20;59.90;;;;;;6190403;23;20025;-84
2021/12/21 14:02:02;;;;;;;8.00;4.07;;;9.40;59.90;;;;;;6189843;23;20021;-82
2021/12/21 14:05:31;;;;;;;8.02;4.00;;;9.40;59.70;;;;;;6213099;23;20021;-81
2021/12/21 14:08:57;;;;;;;7.45;3.40;;;9.30;59.80;;;;;;6191557;23;20104;-82
2021/12/21 14:12:16;;;;;;;5.90;3.22;;;9.30;59.60;;;;;;6195925;23;20111;-83
2021/12/21 14:15:19;;;;;;;6.18;3.63;;;9.40;58.00;;;;;;6174952;23;20033;-83
2021/12/21 14:21:37;;;;;;;5.75;3.45;;;8.50;60.60;;;;;;6216005;23;20344;-84
2021/12/21 14:24:31;;;;;;;6.68;3.58;;;8.10;62.10;;;;;;6217410;23;20024;-83
2021/12/21 14:27:32;;;;;;;10.20;3.83;;;8.20;62.00;;;;;;6181266;23;20029;-82
2021/12/21 14:30:26;;;;;;;6.93;3.78;;;8.10;62.80;;;;;;6218608;23;20032;-84
2021/12/21 14:33:29;;;;;;;6.72;3.92;;;8.10;62.80;;;;;;6197116;23;20373;-85
2021/12/21 14:36:19;;;;;;;10.05;3.72;;;8.20;63.50;;;;;;6196267;23;20028;-84
2021/12/21 14:39:15;;;;;;;11.75;4.88;;;8.00;62.90;;;;;;6215400;23;20024;-85
2021/12/21 14:42:20;;;;;;;8.25;4.05;;;7.60;64.70;;;;;;6195847;23;20047;-83
2021/12/21 14:45:31;;;;;;;10.55;4.63;;;7.40;65.20;;;;;;6194560;23;20039;-84
2021/12/21 14:48:28;;;;;;;11.25;5.05;;;7.20;66.20;;;;;;6196314;23;20095;-84
2021/12/21 14:51:38;;;;;;;9.93;5.30;;;7.20;66.80;;;;;;6176466;23;20051;-86
2021/12/21 14:54:47;;;;;;;10.13;5.25;;;6.90;67.80;;;;;;6197036;23;20270;-83
2021/12/21 14:57:59;;;;;;;9.18;4.50;;;6.40;69.50;;;;;;6217842;23;20009;-84
2021/12/21 15:01:41;;;;;;;10.68;4.95;;;5.70;71.70;;;;;;6206763;23;20082;-85
2021/12/21 15:04:30;;;;;;;9.13;4.90;;;4.80;75.80;;;;;;6207103;23;20075;-83
2021/12/21 15:08:17;;;;;;;8.82;4.60;;;4.10;80.20;;;;;;6189947;23;20024;-85
2021/12/21 15:11:26;;;;;;;15.02;5.22;;;3.30;84.10;;;;;;6158454;23;20033;-81
2021/12/21 15:14:21;;;;;;;10.07;5.57;;;2.70;89.40;;;;;;6194266;23;20043;-84
2021/12/21 15:17:22;;;;;;;8.30;5.15;;;2.20;92.30;;;;;;6194975;23;20458;-86
2021/12/21 15:24:55;;;;;;;12.50;5.70;;;1.50;99.90;;;;;;6064307;23;20022;-83
2021/12/21 15:28:20;;;;;;;15.43;6.75;;;1.00;99.90;;;;;;6063927;23;20353;-85
2021/12/21 15:31:30;;;;;;;10.90;6.18;;;0.40;99.90;;;;;;6082555;23;20341;-84
2021/12/21 15:34:50;;;;;;;12.38;6.30;;;0.10;99.90;;;;;;6092367;23;20387;-83
2021/12/21 15:38:12;;;;;;;;;;;;;;;;;;;;;
2021/12/21 15:41:29;;;;;;;9.30;5.82;;;-0.50;99.90;;;;;;6095278;23;20049;-82
2021/12/21 15:44:22;;;;;;;14.73;6.32;;;-0.80;99.90;;;;;;6073183;23;20046;-82
2021/12/21 15:47:12;;;;;;;16.63;6.65;;;-1.00;99.90;;;;;;6072029;23;20030;-82
2021/12/21 15:50:00;;;;;;;11.68;6.57;;;-1.20;99.90;;;;;;6053008;23;20034;-81
2021/12/21 15:52:48;;;;;;;14.85;7.03;;;-1.40;99.90;;;;;;6051412;23;20144;-81
2021/12/21 15:55:40;;;;;;;17.02;8.40;;;-1.50;99.90;;;;;;6069102;23;20052;-82
2021/12/21 15:58:29;;;;;;;17.33;8.15;;;-1.60;99.90;;;;;;6162147;23;20024;-81
2021/12/21 16:01:33;;;;;;;14.15;7.30;;;-1.70;99.90;;;;;;6212705;23;20024;-81
2021/12/21 16:04:23;;;;;;;16.60;8.63;;;-1.80;99.90;;;;;;6210506;23;20043;-81
2021/12/21 16:07:10;;;;;;;13.45;8.55;;;-1.80;99.90;;;;;;6191822;23;20047;-81
2021/12/21 16:10:05;;;;;;;17.27;9.07;;;-1.90;99.90;;;;;;6168036;23;20024;-81
2021/12/21 16:12:56;;;;;;;16.33;9.10;;;-1.90;99.90;;;;;;6189277;23;20059;-82
2021/12/21 16:15:44;;;;;;;14.20;9.43;;;-2.00;99.90;;;;;;6171320;23;20028;-79
2021/12/21 16:18:33;;;;;;;17.27;10.25;;;-2.00;99.90;;;;;;6188657;23;20020;-80
2021/12/21 16:21:23;;;;;;;24.83;10.75;;;-2.10;99.90;;;;;;6190156;23;20478;-81
2021/12/21 16:24:41;;;;;;;22.88;10.85;;;-2.00;99.90;;;;;;6198176;23;20028;-80
2021/12/21 16:27:30;;;;;;;17.17;10.77;;;-2.00;99.90;;;;;;6211394;23;20036;-80
2021/12/21 16:30:57;;;;;;;19.42;11.82;;;-2.00;99.90;;;;;;6190659;23;20039;-80
2021/12/21 16:33:46;;;;;;;22.08;10.48;;;-2.10;99.90;;;;;;6188973;23;20131;-81
2021/12/21 16:36:36;;;;;;;17.52;10.05;;;-2.20;99.90;;;;;;6189762;23;20036;-80
2021/12/21 16:39:24;;;;;;;19.65;10.55;;;-2.20;99.90;;;;;;6191056;23;20029;-81
2021/12/21 16:42:15;;;;;;;26.52;10.60;;;-2.30;99.90;;;;;;6210995;23;20025;-82
2021/12/21 16:45:04;;;;;;;23.52;13.27;;;-2.30;99.90;;;;;;6189338;23;20063;-80
2021/12/21 16:47:55;;;;;;;22.42;13.75;;;-2.40;99.90;;;;;;6191143;23;20288;-79
2021/12/21 16:50:43;;;;;;;32.08;16.48;;;-2.50;99.90;;;;;;6192630;23;20020;-81
2021/12/21 16:53:31;;;;;;;33.83;18.13;;;-2.60;99.90;;;;;;6172343;23;20127;-81
2021/12/21 16:56:21;;;;;;;30.55;15.18;;;-2.70;99.90;;;;;;6192083;23;20024;-81
2021/12/21 16:59:14;;;;;;;30.08;14.57;;;-2.70;99.90;;;;;;6193444;23;20028;-82
2021/12/21 17:02:02;;;;;;;36.45;17.48;;;-2.60;99.90;;;;;;6191287;23;20028;-83
2021/12/21 17:04:49;;;;;;;33.13;15.85;;;-2.50;99.90;;;;;;6191559;23;20114;-81
2021/12/21 17:07:37;;;;;;;26.48;14.73;;;-2.60;99.90;;;;;;6191597;23;20096;-79
2021/12/21 17:10:27;;;;;;;36.88;15.80;;;-2.40;99.90;;;;;;6172627;23;20028;-79
2021/12/21 17:13:20;;;;;;;27.10;15.13;;;-2.40;99.90;;;;;;6192189;23;20035;-80
2021/12/21 17:16:07;;;;;;;29.70;15.45;;;-2.40;99.90;;;;;;6172379;23;20028;-80
2021/12/21 17:18:56;;;;;;;34.17;15.35;;;-2.60;99.90;;;;;;6173198;23;20163;-83
2021/12/21 17:21:44;;;;;;;25.52;15.00;;;-2.70;99.90;;;;;;6194158;23;20046;-82
2021/12/21 17:24:35;;;;;;;62.67;27.55;;;-2.80;99.90;;;;;;6215797;23;20028;-82
2021/12/21 17:27:22;;;;;;;36.45;18.67;;;-2.90;99.90;;;;;;6173786;23;20041;-80
2021/12/21 17:30:12;;;;;;;30.83;16.48;;;-2.80;99.90;;;;;;6174264;23;20033;-82
2021/12/21 17:33:09;;;;;;;35.95;17.27;;;-2.70;99.90;;;;;;6192802;23;20099;-82
2021/12/21 17:36:19;;;;;;;28.13;16.35;;;-2.60;99.90;;;;;;6061462;23;20833;-82
2021/12/21 17:39:27;;;;;;;40.83;19.20;;;-2.50;99.90;;;;;;6051507;23;20329;-79
2021/12/21 17:42:26;;;;;;;40.83;19.73;;;-2.60;99.90;;;;;;6088993;23;20094;-81
2021/12/21 17:45:23;;;;;;;34.53;18.98;;;-2.60;99.90;;;;;;6048946;23;20026;-81
2021/12/21 17:48:12;;;;;;;33.40;17.95;;;-2.70;99.90;;;;;;6085112;23;20090;-82
2021/12/21 17:51:00;;;;;;;37.13;19.00;;;-2.90;99.90;;;;;;6090799;23;20014;-81
2021/12/21 17:53:48;;;;;;;36.88;20.88;;;-2.80;99.90;;;;;;6098309;23;20034;-81
2021/12/21 17:56:36;;;;;;;37.45;18.60;;;-2.80;99.90;;;;;;6097242;23;20026;-79
2021/12/21 17:59:26;;;;;;;39.83;21.20;;;-2.70;99.90;;;;;;6096224;23;20022;-82
2021/12/21 18:02:19;;;;;;;39.53;21.05;;;-2.60;99.90;;;;;;6095176;23;20018;-80
2021/12/21 18:05:51;;;;;;;46.33;20.83;;;-2.60;99.90;;;;;;6116084;23;20011;-79
2021/12/21 18:08:54;;;;;;;39.90;20.17;;;-2.60;99.90;;;;;;6216946;23;20024;-81
2021/12/21 18:12:04;;;;;;;40.83;20.83;;;-2.70;99.90;;;;;;6193907;23;20043;-80
2021/12/21 18:14:55;;;;;;;33.55;20.17;;;-2.70;99.90;;;;;;6226208;23;20048;-82
2021/12/21 18:18:00;;;;;;;39.78;20.25;;;-2.70;99.90;;;;;;6199966;23;20021;-80
2021/12/21 18:21:02;;;;;;;40.92;20.63;;;-2.70;99.90;;;;;;6058330;23;20316;-83